Grinnell, IA

8:10 AM CST on December 29, 2014 (GMT -0600)
Newton Municipal | Change Station
CLOSE
Current Station
Airport
Location: Newton,
Elevation: 951 ft
Nearby Weather Stations

Elev 951 ft 41.67 °N, 93.02 °W | Updated 15 minutes ago

Overcast
Overcast
25 °F
Feels Like 13 °F
N
14
Wind Variable Wind from NE

Today
High -- | Low -- °F
--% Chance of Precip.
Yesterday
High -- | Low -- °F
Precip. -- in
7:37 AM 4:48 PM
First Quarter, 59% visible
Pressure 30.35 in
Visibility 7.0 miles
Clouds Scattered Clouds 900 ft
Overcast 3700 ft
Windchill 13 °F
Dew Point 23 °F
Humidity 93%
Rainfall 0.00 in
Snow Depth Not available.
UV 0 out of 12
Pollen .10 out of 12
Air Quality Not available.
Flu Activity Not available.
METAR KTNU 291355Z AUTO 04012KT 7SM SCT009 OVC037 M04/M05 A3035 RMK AO2

More Conditions Fewer Conditions

Pressure 30.35 in
Visibility 7.0 miles
Clouds Scattered Clouds 900 ft
Overcast 3700 ft
Windchill 13 °F
Dew Point 23 °F
Humidity 93%
Rainfall 0.00 in
Snow Depth Not available.
UV 0 out of 12
Pollen .10 out of 12
Air Quality Not available.
Flu Activity Not available.
METAR KTNU 291355Z AUTO 04012KT 7SM SCT009 OVC037 M04/M05 A3035 RMK AO2

More Conditions Fewer Conditions

10-Day Weather Forecast

Almanac

Astronomy

Dec. 29, 2014 Rise Set
Actual Time
Civil Twilight
Nautical Twilight
Astronomical Twilight
Moon
Length of Visible Light
Length of Day
Tomorrow will be .
, % of the Moon is Illuminated

Today's Extremes

State Highs State Lows

Community

WunderPhotos

Upload Photos

1,781,587 photos uploaded!

WunderBlogs® & News

Nearby

Air Quality

  Air Quality AQ Index Pollutant
Not available.

Snow Depth

Station Depth Elevation

Earthquake Activity

City Distance Mag. Time & Date
Minimum magnitude displayed is 2.5.

Coastal Water Temperatures

Place Temperature

Nearby Weather Stations